Time;durP1;ratioP1;P1;durP2;ratioP2;P2;SDS_P1;SDS_P2;PMS_P1;PMS_P2;Temp;Humidity;BMP_temperature;BMP_pressure;BME280_temperature;BME280_humidity;BME280_pressure;Samples;Min_cycle;Max_cycle;Signal;HPM_P1;HPM_P2
2022/04/28 00:00:26;;;;;;;12.67;5.80;;;5.40;99.90;;;;;;4977127;28;20210;-60
2022/04/28 00:02:54;;;;;;;7.10;4.80;;;5.40;99.90;;;;;;4996337;28;20213;-60
2022/04/28 00:05:21;;;;;;;8.97;4.70;;;5.40;99.90;;;;;;5005171;28;20206;-60
2022/04/28 00:07:50;;;;;;;11.17;5.87;;;5.40;99.90;;;;;;4997806;28;20717;-65
2022/04/28 00:10:17;;;;;;;18.23;5.10;;;5.40;99.90;;;;;;4986231;28;21688;-61
2022/04/28 00:12:44;;;;;;;13.27;6.17;;;5.40;99.90;;;;;;5009764;28;20224;-61
2022/04/28 00:15:12;;;;;;;9.80;5.60;;;5.30;99.90;;;;;;4990174;28;20256;-60
2022/04/28 00:17:39;;;;;;;14.70;6.93;;;5.40;99.90;;;;;;4984783;28;20885;-61
2022/04/28 00:20:07;;;;;;;12.77;6.60;;;5.30;99.90;;;;;;5005854;28;20195;-60
2022/04/28 00:22:34;;;;;;;8.97;5.63;;;5.30;99.90;;;;;;4994881;28;20222;-60
2022/04/28 00:25:03;;;;;;;11.37;6.10;;;5.30;99.90;;;;;;4986760;28;20347;-60
2022/04/28 00:27:30;;;;;;;9.47;5.90;;;5.20;99.90;;;;;;5006233;28;20201;-60
2022/04/28 00:29:57;;;;;;;13.27;5.73;;;5.30;99.90;;;;;;4992789;28;20221;-61
2022/04/28 00:32:24;;;;;;;7.83;5.03;;;5.20;99.90;;;;;;4981725;28;20248;-60
2022/04/28 00:34:52;;;;;;;8.10;5.57;;;5.20;99.90;;;;;;5004453;28;20209;-60
2022/04/28 00:37:19;;;;;;;8.93;5.13;;;5.20;99.90;;;;;;5001099;28;20204;-60
2022/04/28 00:39:46;;;;;;;10.70;5.17;;;5.10;99.90;;;;;;4995380;28;21078;-61
2022/04/28 00:42:16;;;;;;;11.50;5.53;;;5.10;99.90;;;;;;5009917;28;20200;-60
2022/04/28 00:44:44;;;;;;;10.43;5.40;;;5.10;99.90;;;;;;4979578;28;20695;-61
2022/04/28 00:47:11;;;;;;;8.67;5.00;;;5.20;99.90;;;;;;5007668;28;20203;-61
2022/04/28 00:52:24;;;;;;;7.70;4.73;;;5.10;99.90;;;;;;4993740;28;20411;-62
2022/04/28 00:54:53;;;;;;;11.97;5.33;;;5.10;99.90;;;;;;5011667;28;20206;-61
2022/04/28 00:57:23;;;;;;;6.83;4.27;;;5.00;99.90;;;;;;4996056;28;20199;-60
2022/04/28 00:59:51;;;;;;;8.63;4.70;;;5.00;99.90;;;;;;4988671;28;20237;-62
2022/04/28 01:02:19;;;;;;;8.10;4.27;;;4.90;99.90;;;;;;4999165;28;20235;-60
2022/04/28 01:04:47;;;;;;;13.10;5.40;;;4.90;99.90;;;;;;4999055;28;20297;-61
2022/04/28 01:07:15;;;;;;;6.07;4.67;;;4.90;99.90;;;;;;5006344;28;21067;-61
2022/04/28 01:09:42;;;;;;;10.57;5.30;;;4.80;99.90;;;;;;4990106;28;20929;-61
2022/04/28 01:12:14;;;;;;;7.60;4.17;;;4.80;99.90;;;;;;5009403;28;20705;-60
2022/04/28 01:14:44;;;;;;;7.57;4.57;;;4.70;99.90;;;;;;4989725;28;20745;-60
2022/04/28 01:17:12;;;;;;;6.63;4.40;;;4.60;99.90;;;;;;5004723;28;20203;-62
2022/04/28 01:19:39;;;;;;;6.33;4.27;;;4.60;99.90;;;;;;4998459;28;20198;-61
2022/04/28 01:22:07;;;;;;;9.43;4.67;;;4.60;99.90;;;;;;4990501;28;20291;-61
2022/04/28 01:24:36;;;;;;;8.73;5.33;;;4.60;99.90;;;;;;4999073;28;20220;-61
2022/04/28 01:27:05;;;;;;;7.57;4.07;;;4.50;99.90;;;;;;5011168;28;20205;-61
2022/04/28 01:29:33;;;;;;;10.57;4.13;;;4.50;99.90;;;;;;4990038;28;20208;-61
2022/04/28 01:32:00;;;;;;;11.23;4.93;;;4.50;99.90;;;;;;4995265;28;20206;-61
2022/04/28 01:34:27;;;;;;;11.03;5.17;;;4.40;99.90;;;;;;4996624;28;20221;-61
2022/04/28 01:36:54;;;;;;;8.07;3.97;;;4.40;99.90;;;;;;4994597;28;20198;-61
2022/04/28 01:39:22;;;;;;;17.40;4.70;;;4.40;99.90;;;;;;4997026;28;20199;-61
2022/04/28 01:41:50;;;;;;;8.00;4.63;;;4.40;99.90;;;;;;4995354;28;20213;-60
2022/04/28 01:44:16;;;;;;;7.77;4.77;;;4.50;99.90;;;;;;5007050;28;20205;-61
2022/04/28 01:46:44;;;;;;;5.97;4.20;;;4.40;99.90;;;;;;4986105;28;20232;-61
2022/04/28 01:49:13;;;;;;;7.43;4.73;;;4.40;99.90;;;;;;5000940;28;20206;-61
2022/04/28 01:57:11;;;;;;;9.47;4.77;;;4.50;99.90;;;;;;5000484;28;20213;-61
2022/04/28 01:59:38;;;;;;;6.10;3.93;;;4.50;99.90;;;;;;4995053;28;20682;-61
2022/04/28 02:02:05;;;;;;;9.33;3.80;;;4.50;99.90;;;;;;4988928;28;20228;-61
2022/04/28 02:04:32;;;;;;;11.80;4.40;;;4.50;99.90;;;;;;5002913;28;20757;-61
2022/04/28 02:06:59;;;;;;;6.67;4.57;;;4.50;99.90;;;;;;4995500;28;20198;-61
2022/04/28 02:09:27;;;;;;;13.33;4.43;;;4.40;99.90;;;;;;4994164;28;20202;-60
2022/04/28 02:11:54;;;;;;;7.07;5.07;;;4.40;99.90;;;;;;4993109;28;20260;-62
2022/04/28 02:14:21;;;;;;;6.43;4.67;;;4.30;99.90;;;;;;5003206;28;20229;-61
2022/04/28 02:16:48;;;;;;;13.07;4.97;;;4.40;99.90;;;;;;4958711;28;20221;-60
2022/04/28 02:19:15;;;;;;;10.77;4.93;;;4.50;99.90;;;;;;5002014;28;20222;-61
2022/04/28 02:21:42;;;;;;;6.90;4.37;;;4.30;99.90;;;;;;4979078;28;20212;-61
2022/04/28 02:24:09;;;;;;;7.13;4.13;;;4.10;99.90;;;;;;4993428;28;20207;-61
2022/04/28 02:26:38;;;;;;;8.47;4.47;;;3.90;99.90;;;;;;4995647;28;20208;-61
2022/04/28 02:29:04;;;;;;;10.03;4.70;;;3.80;99.90;;;;;;5003915;28;20215;-61
2022/04/28 02:31:31;;;;;;;8.90;5.00;;;3.70;99.90;;;;;;4992442;28;20228;-61
2022/04/28 02:33:58;;;;;;;6.27;4.40;;;3.90;99.90;;;;;;5008839;28;20279;-61
2022/04/28 02:36:25;;;;;;;8.40;4.30;;;3.80;99.90;;;;;;5003037;28;20196;-61
2022/04/28 02:38:52;;;;;;;6.93;4.37;;;3.70;99.90;;;;;;4984701;28;20216;-61
2022/04/28 02:41:21;;;;;;;8.40;5.00;;;3.60;99.90;;;;;;4998846;28;20203;-60
2022/04/28 02:43:50;;;;;;;9.13;5.00;;;3.60;99.90;;;;;;4989327;28;20755;-60
2022/04/28 02:46:17;;;;;;;6.67;5.07;;;3.70;99.90;;;;;;5009536;28;20292;-61
2022/04/28 02:48:45;;;;;;;9.50;5.67;;;3.80;99.90;;;;;;4984499;28;20208;-61
2022/04/28 02:51:13;;;;;;;8.20;4.97;;;3.80;99.90;;;;;;5011702;28;20217;-61
2022/04/28 02:53:40;;;;;;;9.27;5.43;;;3.80;99.90;;;;;;4995793;28;20251;-60
2022/04/28 02:56:07;;;;;;;10.83;5.47;;;3.80;99.90;;;;;;5010922;28;20199;-61
2022/04/28 02:58:34;;;;;;;7.43;5.73;;;3.80;99.90;;;;;;4990908;28;20219;-61
2022/04/28 03:01:04;;;;;;;9.37;5.30;;;3.80;99.90;;;;;;5012782;28;20291;-60
2022/04/28 03:03:30;;;;;;;9.17;5.30;;;3.80;99.90;;;;;;4990013;28;20218;-60
2022/04/28 03:11:27;;;;;;;9.43;5.60;;;4.00;99.90;;;;;;4986643;28;20232;-60
2022/04/28 03:13:54;;;;;;;10.10;6.20;;;4.00;99.90;;;;;;5000582;28;20222;-60
2022/04/28 03:16:22;;;;;;;9.90;6.20;;;4.10;99.90;;;;;;4996969;28;20215;-60
2022/04/28 03:18:49;;;;;;;9.73;5.53;;;4.10;99.90;;;;;;5000037;28;20259;-60
2022/04/28 03:21:16;;;;;;;8.63;5.57;;;4.20;99.90;;;;;;5010400;28;20201;-60
2022/04/28 03:23:43;;;;;;;9.77;5.83;;;4.10;99.90;;;;;;4978905;28;20235;-59
2022/04/28 03:26:11;;;;;;;9.33;6.20;;;4.30;99.90;;;;;;5008607;28;20216;-60
2022/04/28 03:28:38;;;;;;;6.70;5.30;;;4.30;99.90;;;;;;4995168;28;20205;-60
2022/04/28 03:31:06;;;;;;;9.93;5.70;;;4.30;99.90;;;;;;4976836;28;20228;-61
2022/04/28 03:33:35;;;;;;;12.50;6.60;;;4.30;99.90;;;;;;4987735;28;20314;-61
2022/04/28 03:36:50;;;;;;;10.97;6.23;;;4.50;99.90;;;;;;4998169;28;20194;-60
2022/04/28 03:38:49;;;;;;;8.53;6.00;;;4.60;99.90;;;;;;4994847;28;20214;-61
2022/04/28 03:41:17;;;;;;;14.07;6.00;;;4.70;99.90;;;;;;5010817;28;20212;-60
2022/04/28 03:43:44;;;;;;;10.67;6.80;;;4.70;99.90;;;;;;4995410;28;20209;-61
2022/04/28 03:46:11;;;;;;;9.93;6.17;;;4.70;99.90;;;;;;5005198;28;20190;-61
2022/04/28 03:48:40;;;;;;;12.00;6.70;;;4.70;99.90;;;;;;4956481;28;20233;-61
2022/04/28 03:51:07;;;;;;;13.10;6.30;;;4.80;99.90;;;;;;5003172;28;20195;-60
2022/04/28 03:53:34;;;;;;;10.27;6.50;;;4.90;99.90;;;;;;4990523;28;20225;-60
2022/04/28 03:56:01;;;;;;;17.80;6.60;;;5.00;99.90;;;;;;4999209;28;20341;-61
2022/04/28 03:58:28;;;;;;;11.83;5.87;;;5.00;99.90;;;;;;5001615;28;20251;-60
2022/04/28 04:00:55;;;;;;;10.60;6.80;;;5.00;99.90;;;;;;4996347;28;20222;-60
2022/04/28 04:03:22;;;;;;;15.07;6.23;;;5.00;99.90;;;;;;4987869;28;20219;-60
2022/04/28 04:05:51;;;;;;;14.90;6.70;;;5.10;99.90;;;;;;4993470;28;20582;-60
2022/04/28 04:08:18;;;;;;;7.27;5.73;;;5.10;99.90;;;;;;5007272;28;20211;-61
2022/04/28 04:10:45;;;;;;;13.60;6.90;;;5.20;99.90;;;;;;4990410;28;20205;-61
2022/04/28 04:13:12;;;;;;;17.80;7.37;;;5.30;99.90;;;;;;4999178;28;20218;-60
2022/04/28 04:15:39;;;;;;;10.77;6.90;;;5.40;99.90;;;;;;5001697;28;20218;-60
2022/04/28 04:18:06;;;;;;;13.50;7.00;;;5.40;99.90;;;;;;4998038;28;20260;-61
2022/04/28 04:20:34;;;;;;;14.40;6.90;;;5.40;99.90;;;;;;4979989;28;20331;-60
2022/04/28 04:23:05;;;;;;;14.47;6.40;;;5.50;99.90;;;;;;5007102;28;20260;-60
2022/04/28 04:25:32;;;;;;;12.33;6.50;;;5.50;99.90;;;;;;4995202;28;20230;-61
2022/04/28 04:27:59;;;;;;;10.00;6.20;;;5.40;99.90;;;;;;4995220;28;20205;-61
2022/04/28 04:33:11;;;;;;;13.23;6.53;;;5.60;99.90;;;;;;5029335;28;20837;-60
2022/04/28 04:35:38;;;;;;;12.90;7.30;;;5.60;99.90;;;;;;4991622;28;20289;-61
2022/04/28 04:38:06;;;;;;;11.40;6.57;;;5.60;99.90;;;;;;5020799;28;20320;-60
2022/04/28 04:40:33;;;;;;;12.77;7.27;;;5.70;99.90;;;;;;5002389;28;20224;-60
2022/04/28 04:43:01;;;;;;;12.70;6.33;;;5.70;99.90;;;;;;4997854;28;20243;-60
2022/04/28 04:45:28;;;;;;;11.43;6.47;;;5.80;99.90;;;;;;5002256;28;20210;-60
2022/04/28 04:47:55;;;;;;;9.60;6.43;;;5.80;99.90;;;;;;4979140;28;20259;-60
2022/04/28 04:50:22;;;;;;;13.80;6.53;;;5.90;99.90;;;;;;4975468;28;20991;-61
2022/04/28 04:52:50;;;;;;;7.70;6.10;;;5.90;99.90;;;;;;4973645;28;20238;-61
2022/04/28 04:55:18;;;;;;;11.03;6.77;;;6.00;99.90;;;;;;4990463;28;20267;-60
2022/04/28 04:57:45;;;;;;;13.70;6.97;;;6.10;99.90;;;;;;4985882;28;22845;-61
2022/04/28 05:00:13;;;;;;;18.30;7.50;;;6.10;99.90;;;;;;4985343;28;20307;-61
2022/04/28 05:02:39;;;;;;;12.90;6.70;;;6.10;99.90;;;;;;4993138;28;20869;-60
2022/04/28 05:05:07;;;;;;;10.93;6.90;;;6.10;99.90;;;;;;4989111;28;21108;-63
2022/04/28 05:07:34;;;;;;;16.07;6.50;;;6.20;99.90;;;;;;4982738;28;20208;-61
2022/04/28 05:10:01;;;;;;;21.83;6.87;;;6.20;99.90;;;;;;4998275;28;20297;-61
2022/04/28 05:12:30;;;;;;;18.13;7.20;;;6.20;99.90;;;;;;5005100;28;20202;-61
2022/04/28 05:14:57;;;;;;;9.97;6.33;;;6.20;99.90;;;;;;4974306;28;20238;-60
2022/04/28 05:17:24;;;;;;;15.53;7.00;;;6.30;99.90;;;;;;4989141;28;20223;-60
2022/04/28 05:19:51;;;;;;;12.33;7.13;;;6.30;99.90;;;;;;4981498;28;20247;-60
2022/04/28 05:22:18;;;;;;;17.90;7.47;;;6.30;99.90;;;;;;4981643;28;20213;-61
2022/04/28 05:24:45;;;;;;;15.60;6.70;;;6.30;99.90;;;;;;4978370;28;20207;-61
2022/04/28 05:27:14;;;;;;;9.97;6.07;;;6.40;99.90;;;;;;4998225;28;20948;-60
2022/04/28 05:29:43;;;;;;;15.63;7.13;;;6.40;99.90;;;;;;4966673;28;20218;-62
2022/04/28 05:32:10;;;;;;;10.90;6.37;;;6.40;99.90;;;;;;5004576;28;20679;-61
2022/04/28 05:34:36;;;;;;;12.77;7.13;;;6.40;99.90;;;;;;5008980;28;20289;-62
2022/04/28 05:37:04;;;;;;;11.97;6.07;;;6.50;99.90;;;;;;4986554;28;20980;-60
2022/04/28 05:39:31;;;;;;;14.67;6.60;;;6.60;99.90;;;;;;4999445;28;20211;-61
2022/04/28 05:41:58;;;;;;;35.43;6.83;;;6.60;99.90;;;;;;5008458;28;20204;-60
2022/04/28 05:47:11;;;;;;;7.97;5.80;;;6.70;99.90;;;;;;5001140;28;20217;-60
2022/04/28 05:49:39;;;;;;;9.73;6.07;;;6.80;99.90;;;;;;5007534;28;20203;-60
2022/04/28 05:52:07;;;;;;;14.47;6.60;;;6.90;99.90;;;;;;4985241;28;20219;-60
2022/04/28 05:54:35;;;;;;;9.00;5.93;;;6.90;99.90;;;;;;5002181;28;20301;-61
2022/04/28 05:57:02;;;;;;;16.60;5.77;;;6.90;99.90;;;;;;5001155;28;20265;-61
2022/04/28 05:59:29;;;;;;;14.20;6.30;;;7.20;99.90;;;;;;5008634;28;20214;-61
2022/04/28 06:01:56;;;;;;;10.00;5.93;;;7.60;99.90;;;;;;4995579;28;20213;-60
2022/04/28 06:04:25;;;;;;;15.33;6.27;;;7.70;99.90;;;;;;5011507;28;20205;-60
2022/04/28 06:06:52;;;;;;;13.73;5.60;;;7.50;99.90;;;;;;4996636;28;20213;-60
2022/04/28 06:09:19;;;;;;;11.43;6.40;;;7.60;99.90;;;;;;5006202;28;20629;-60
2022/04/28 06:11:46;;;;;;;10.07;5.93;;;7.60;99.90;;;;;;5003198;28;21626;-61
2022/04/28 06:14:13;;;;;;;10.50;5.87;;;7.60;99.90;;;;;;5009064;28;20231;-60
2022/04/28 06:16:41;;;;;;;14.80;6.13;;;7.70;99.90;;;;;;5001295;28;20215;-61
2022/04/28 06:19:08;;;;;;;17.80;6.43;;;7.70;99.90;;;;;;5010571;28;20205;-60
2022/04/28 06:21:36;;;;;;;16.07;6.33;;;7.70;99.90;;;;;;5013275;28;20196;-60
2022/04/28 06:24:03;;;;;;;13.10;6.03;;;7.70;99.90;;;;;;4995769;28;20218;-61
2022/04/28 06:26:30;;;;;;;11.17;5.73;;;7.80;99.90;;;;;;4999954;28;20201;-61
2022/04/28 06:28:57;;;;;;;11.40;5.63;;;7.70;99.90;;;;;;5001934;28;20210;-60
2022/04/28 06:31:24;;;;;;;11.77;5.73;;;7.70;99.90;;;;;;4996886;28;20222;-60
2022/04/28 06:33:51;;;;;;;18.37;7.10;;;7.70;99.90;;;;;;5010547;28;20228;-60
2022/04/28 06:36:18;;;;;;;10.43;6.13;;;7.70;99.90;;;;;;5001943;28;20225;-60
2022/04/28 06:38:46;;;;;;;8.17;5.80;;;7.70;99.90;;;;;;4998383;28;20247;-60
2022/04/28 06:41:13;;;;;;;16.30;6.03;;;7.80;99.90;;;;;;4996584;28;20217;-61
2022/04/28 06:43:41;;;;;;;10.33;5.53;;;7.80;99.90;;;;;;5003823;28;20221;-60
2022/04/28 06:46:13;;;;;;;17.23;7.10;;;7.90;99.90;;;;;;5002191;28;20226;-60
2022/04/28 06:48:41;;;;;;;7.90;5.50;;;8.00;99.90;;;;;;4990698;28;20240;-60
2022/04/28 06:51:08;;;;;;;10.20;6.10;;;8.10;99.90;;;;;;5006062;28;20637;-61
2022/04/28 06:53:36;;;;;;;14.27;6.33;;;8.20;99.90;;;;;;5005904;28;20222;-60
2022/04/28 06:56:04;;;;;;;11.57;6.67;;;8.30;99.90;;;;;;4996864;28;20231;-61
2022/04/28 06:58:31;;;;;;;15.17;6.73;;;8.30;99.90;;;;;;4997516;28;20276;-61
2022/04/28 07:00:58;;;;;;;10.83;5.60;;;8.40;99.90;;;;;;5007199;28;20267;-60
2022/04/28 07:03:25;;;;;;;12.43;5.20;;;8.60;99.90;;;;;;5000209;28;20202;-61
2022/04/28 07:05:53;;;;;;;10.70;5.30;;;8.70;99.90;;;;;;5008492;28;23010;-60
2022/04/28 07:08:20;;;;;;;11.23;5.53;;;8.80;99.90;;;;;;5010643;28;20322;-61
2022/04/28 07:10:47;;;;;;;12.00;4.73;;;8.80;99.90;;;;;;4990584;28;20202;-60
2022/04/28 07:13:15;;;;;;;8.70;5.37;;;8.90;99.90;;;;;;5021489;28;20281;-59
2022/04/28 07:15:43;;;;;;;14.77;5.33;;;9.10;99.90;;;;;;5017500;28;20320;-61
2022/04/28 07:18:11;;;;;;;13.17;5.33;;;9.20;99.90;;;;;;4998287;28;23030;-61
2022/04/28 07:20:38;;;;;;;13.57;5.23;;;9.30;99.90;;;;;;5000139;28;20613;-61
2022/04/28 07:23:06;;;;;;;18.97;4.80;;;9.40;99.90;;;;;;5005500;28;20218;-61
2022/04/28 07:25:32;;;;;;;11.50;4.63;;;9.50;99.90;;;;;;4991654;28;20765;-62
2022/04/28 07:27:59;;;;;;;12.60;4.63;;;9.60;99.90;;;;;;4997474;28;20230;-61
2022/04/28 07:30:28;;;;;;;11.23;4.97;;;9.60;99.90;;;;;;4991046;28;20216;-61
2022/04/28 07:32:55;;;;;;;10.27;4.90;;;9.80;99.90;;;;;;5004731;28;20250;-60
2022/04/28 07:35:24;;;;;;;8.00;3.77;;;9.80;99.90;;;;;;4996532;28;20225;-60
2022/04/28 07:37:50;;;;;;;14.50;5.50;;;9.90;99.90;;;;;;4999534;28;20219;-61
2022/04/28 07:40:18;;;;;;;10.10;5.03;;;9.90;99.90;;;;;;5019945;28;20202;-61
2022/04/28 07:42:45;;;;;;;8.60;4.60;;;9.90;99.90;;;;;;5017227;28;20266;-61
2022/04/28 07:45:12;;;;;;;11.50;5.23;;;9.90;99.90;;;;;;5011042;28;20707;-61
2022/04/28 07:47:40;;;;;;;14.57;4.63;;;9.90;99.90;;;;;;5009652;28;20684;-61
2022/04/28 07:50:09;;;;;;;10.40;4.00;;;10.00;99.90;;;;;;5001196;28;20206;-62
2022/04/28 07:52:37;;;;;;;9.43;4.37;;;10.00;99.90;;;;;;5010029;28;20205;-61
2022/04/28 07:55:06;;;;;;;10.23;5.10;;;10.10;99.90;;;;;;5006968;28;20241;-61
2022/04/28 07:57:34;;;;;;;8.93;4.30;;;10.00;99.90;;;;;;5012041;28;20215;-61
2022/04/28 08:00:01;;;;;;;13.97;4.63;;;10.00;99.90;;;;;;5009508;28;20213;-61
2022/04/28 08:02:29;;;;;;;8.53;3.80;;;10.10;99.90;;;;;;5021771;28;20202;-61
2022/04/28 08:04:57;;;;;;;13.97;4.17;;;10.10;99.90;;;;;;5025428;28;20233;-60
2022/04/28 08:07:24;;;;;;;18.73;5.20;;;10.10;99.90;;;;;;5018629;28;20226;-61
2022/04/28 08:09:51;;;;;;;12.23;3.97;;;10.10;99.90;;;;;;5011540;28;21056;-61
2022/04/28 08:12:18;;;;;;;9.83;3.90;;;10.10;99.90;;;;;;4991795;28;20217;-61
2022/04/28 08:14:45;;;;;;;11.77;3.93;;;10.20;99.90;;;;;;4998381;28;20225;-61
2022/04/28 08:17:13;;;;;;;11.33;4.03;;;10.20;99.90;;;;;;5002429;28;20215;-61
2022/04/28 08:19:39;;;;;;;9.93;3.77;;;10.20;99.90;;;;;;5001607;28;20224;-62
2022/04/28 08:22:08;;;;;;;13.57;4.33;;;10.30;99.90;;;;;;4992360;28;20968;-61
2022/04/28 08:24:35;;;;;;;8.10;3.53;;;10.40;99.90;;;;;;5005008;28;20416;-61
2022/04/28 08:27:02;;;;;;;7.60;3.83;;;10.40;99.90;;;;;;5008856;28;20862;-61
2022/04/28 08:29:29;;;;;;;11.80;4.00;;;10.40;99.90;;;;;;4983138;28;20210;-61
2022/04/28 08:31:56;;;;;;;12.20;3.87;;;10.40;99.90;;;;;;5010457;28;20289;-61
2022/04/28 08:34:23;;;;;;;14.27;3.97;;;10.40;99.90;;;;;;5012845;28;20729;-61
2022/04/28 08:36:51;;;;;;;26.43;5.00;;;10.40;99.90;;;;;;5012946;28;20206;-62
2022/04/28 08:39:20;;;;;;;17.70;3.97;;;10.40;99.90;;;;;;4995461;28;20234;-61
2022/04/28 08:41:47;;;;;;;11.67;3.37;;;10.50;99.90;;;;;;5007036;28;20205;-60
2022/04/28 08:44:18;;;;;;;9.33;3.33;;;10.40;99.90;;;;;;4993520;28;20429;-61
2022/04/28 08:46:51;;;;;;;9.87;3.47;;;10.50;99.90;;;;;;4998461;28;20210;-61
2022/04/28 08:49:19;;;;;;;10.10;4.30;;;10.40;99.90;;;;;;5008554;28;20198;-62
2022/04/28 08:51:46;;;;;;;15.00;3.90;;;10.50;99.90;;;;;;5012285;28;20210;-59
2022/04/28 08:54:14;;;;;;;16.57;3.93;;;10.50;99.90;;;;;;4999258;28;20222;-61
2022/04/28 08:56:42;;;;;;;8.87;3.60;;;10.60;99.90;;;;;;5006956;28;20289;-62
2022/04/28 08:59:10;;;;;;;12.40;3.37;;;10.60;99.90;;;;;;4994007;28;20205;-62
2022/04/28 09:01:37;;;;;;;8.23;3.60;;;10.50;99.90;;;;;;5001257;28;20615;-61
2022/04/28 09:04:06;;;;;;;12.73;4.73;;;10.50;99.90;;;;;;4993867;28;20202;-61
2022/04/28 09:06:35;;;;;;;8.17;4.20;;;10.50;99.90;;;;;;4981712;28;20340;-62
2022/04/28 09:09:04;;;;;;;13.93;4.10;;;10.40;99.90;;;;;;4998876;28;20304;-62
2022/04/28 09:11:34;;;;;;;6.50;3.53;;;10.50;99.90;;;;;;5010964;28;20618;-61
2022/04/28 09:14:11;;;;;;;10.77;4.13;;;10.50;99.90;;;;;;4996271;28;20217;-62
2022/04/28 09:16:43;;;;;;;8.77;3.63;;;10.60;99.90;;;;;;4993495;28;20222;-61
2022/04/28 09:19:11;;;;;;;11.70;3.77;;;10.50;99.90;;;;;;4997282;28;20300;-62
2022/04/28 09:21:39;;;;;;;9.00;3.73;;;10.60;99.90;;;;;;5006386;28;20204;-62
2022/04/28 09:24:07;;;;;;;7.57;3.47;;;10.60;99.90;;;;;;4998500;28;20253;-62
2022/04/28 09:26:34;;;;;;;11.43;4.10;;;10.60;99.90;;;;;;5019634;28;20228;-62
2022/04/28 09:29:04;;;;;;;12.57;4.10;;;10.80;99.90;;;;;;4998364;28;20335;-61
2022/04/28 09:31:35;;;;;;;12.70;4.10;;;10.80;99.90;;;;;;5004550;28;20241;-60
2022/04/28 09:34:07;;;;;;;10.70;4.33;;;10.60;99.90;;;;;;5010527;28;20202;-61
2022/04/28 09:36:34;;;;;;;12.17;4.10;;;10.70;99.90;;;;;;4998456;28;20222;-61
2022/04/28 09:39:01;;;;;;;10.53;4.50;;;10.70;99.90;;;;;;5011083;28;20196;-61
2022/04/28 09:44:16;;;;;;;9.77;4.17;;;10.70;99.90;;;;;;5007676;28;20232;-61
2022/04/28 09:46:44;;;;;;;8.20;4.67;;;10.80;99.90;;;;;;5014552;28;20213;-62
2022/04/28 09:49:12;;;;;;;12.07;3.80;;;10.80;99.90;;;;;;5013891;28;20885;-62
2022/04/28 09:51:40;;;;;;;9.00;4.23;;;10.80;99.90;;;;;;5017943;28;20203;-61
2022/04/28 09:54:10;;;;;;;8.63;4.07;;;10.70;99.90;;;;;;5019371;28;20190;-62
2022/04/28 09:56:40;;;;;;;9.43;4.60;;;10.70;99.90;;;;;;5018992;28;20594;-61
2022/04/28 09:59:10;;;;;;;13.17;4.20;;;10.70;99.90;;;;;;5011963;28;20638;-62
2022/04/28 10:01:40;;;;;;;11.37;4.20;;;10.70;99.90;;;;;;5022557;28;20194;-62
2022/04/28 10:04:08;;;;;;;10.13;4.10;;;10.80;99.90;;;;;;4992075;28;20357;-62
2022/04/28 10:20:20;;;;;;;13.43;4.50;;;10.90;99.90;;;;;;5030689;28;20295;-61
2022/04/28 10:22:49;;;;;;;18.47;6.17;;;10.80;99.90;;;;;;5034534;28;20198;-61
2022/04/28 10:33:42;;;;;;;12.30;4.40;;;11.00;99.90;;;;;;4997942;28;20644;-61
2022/04/28 10:36:16;;;;;;;10.63;4.23;;;11.00;99.90;;;;;;5033329;28;20559;-61
2022/04/28 10:39:05;;;;;;;12.02;4.25;;;10.80;99.90;;;;;;5022924;28;20222;-61
2022/04/28 10:41:33;;;;;;;13.93;4.07;;;10.90;99.90;;;;;;4995468;28;20214;-61
2022/04/28 10:44:00;;;;;;;9.07;3.70;;;11.00;99.90;;;;;;5007142;28;20198;-60
2022/04/28 10:46:31;;;;;;;9.27;3.50;;;10.90;99.90;;;;;;4991839;28;20218;-60
2022/04/28 10:49:01;;;;;;;11.40;3.50;;;11.00;99.90;;;;;;5002847;28;21097;-61
2022/04/28 10:51:32;;;;;;;12.95;3.90;;;11.00;99.90;;;;;;4998285;28;20222;-61
2022/04/28 10:54:09;;;;;;;7.80;3.57;;;11.10;99.90;;;;;;5003522;28;20208;-61
2022/04/28 10:56:58;;;;;;;6.00;3.43;;;11.00;99.90;;;;;;5002778;28;20779;-61
2022/04/28 11:19:40;;;;;;;8.05;3.30;;;11.20;99.90;;;;;;5004244;28;20253;-61
2022/04/28 11:22:07;;;;;;;9.07;3.77;;;11.30;99.90;;;;;;4996776;28;20205;-62
2022/04/28 11:24:34;;;;;;;8.73;3.45;;;11.30;99.90;;;;;;4999526;28;20202;-61
2022/04/28 11:27:01;;;;;;;11.23;3.55;;;11.50;99.90;;;;;;5004067;28;20283;-61
2022/04/28 11:36:29;;;;;;;10.30;3.47;;;11.30;99.90;;;;;;4992391;28;20273;-61
2022/04/28 11:38:58;;;;;;;12.77;3.20;;;11.40;99.90;;;;;;4999771;28;20321;-61
2022/04/28 11:41:32;;;;;;;9.38;2.60;;;11.30;99.90;;;;;;4994807;28;20230;-61
2022/04/28 11:44:07;;;;;;;18.38;3.60;;;11.50;99.90;;;;;;5006917;28;20584;-61
2022/04/28 11:46:37;;;;;;;8.27;2.63;;;11.40;99.90;;;;;;5003538;28;20217;-61
2022/04/28 11:49:04;;;;;;;8.98;2.97;;;11.30;99.90;;;;;;4986003;28;20205;-61
2022/04/28 11:51:35;;;;;;;12.23;3.80;;;11.40;99.90;;;;;;4990535;28;20232;-62
2022/04/28 11:54:03;;;;;;;15.10;3.58;;;11.50;99.90;;;;;;4995531;28;20252;-61
2022/04/28 11:56:31;;;;;;;14.88;2.97;;;11.40;99.90;;;;;;5002691;28;21061;-62
2022/04/28 11:58:59;;;;;;;12.60;3.15;;;11.40;99.90;;;;;;5005191;28;20207;-62
2022/04/28 12:01:30;;;;;;;11.10;3.10;;;11.30;99.90;;;;;;4969543;28;20675;-61
2022/04/28 12:03:59;;;;;;;9.80;3.03;;;11.40;99.90;;;;;;4977517;28;20798;-61
2022/04/28 12:06:27;;;;;;;7.82;3.75;;;11.50;99.90;;;;;;4992378;28;20256;-62
2022/04/28 12:08:57;;;;;;;7.40;3.08;;;11.60;99.90;;;;;;4999110;28;20210;-62
2022/04/28 12:14:25;;;;;;;12.82;3.95;;;11.60;99.90;;;;;;5004604;28;20267;-61
2022/04/28 12:19:52;;;;;;;10.75;3.13;;;11.80;99.90;;;;;;4967126;28;20225;-61
2022/04/28 12:22:30;;;;;;;13.68;2.65;;;11.70;99.90;;;;;;4965456;28;20330;-61
2022/04/28 12:25:07;;;;;;;11.88;2.17;;;11.50;99.90;;;;;;4988684;28;20202;-62
2022/04/28 12:27:44;;;;;;;6.15;2.22;;;11.70;99.90;;;;;;4983731;28;20236;-61
2022/04/28 12:30:16;;;;;;;8.98;2.58;;;11.80;99.90;;;;;;4991105;28;20230;-61
2022/04/28 12:32:48;;;;;;;5.90;2.20;;;11.90;99.90;;;;;;4986179;28;20291;-60
2022/04/28 12:35:27;;;;;;;14.35;2.97;;;11.80;99.90;;;;;;4966244;28;20249;-61
2022/04/28 12:37:56;;;;;;;12.32;2.60;;;11.80;99.90;;;;;;4970048;28;20205;-61
2022/04/28 12:40:25;;;;;;;17.73;3.20;;;11.90;99.90;;;;;;4982970;28;20212;-61
2022/04/28 12:42:54;;;;;;;9.23;2.35;;;11.90;99.90;;;;;;4992421;22;20213;-60
2022/04/28 12:45:45;;;;;;;8.00;2.10;;;11.90;99.90;;;;;;5031287;28;20652;-60
2022/04/28 12:48:30;;;;;;;7.03;2.10;;;12.00;99.90;;;;;;5017072;28;20221;-62
2022/04/28 12:51:17;;;;;;;10.65;2.33;;;12.10;99.90;;;;;;5007268;28;22194;-60
2022/04/28 12:53:47;;;;;;;7.10;2.17;;;12.10;99.90;;;;;;5011626;28;20204;-60
2022/04/28 12:56:17;;;;;;;6.47;2.38;;;12.10;99.90;;;;;;5011797;28;20240;-61
2022/04/28 12:58:47;;;;;;;7.30;2.53;;;12.10;99.90;;;;;;5042991;28;20226;-61
2022/04/28 13:01:17;;;;;;;12.35;3.15;;;11.90;99.90;;;;;;5033133;28;20220;-60
2022/04/28 13:03:54;;;;;;;9.75;2.50;;;12.00;99.90;;;;;;5021320;28;20232;-63
2022/04/28 13:06:22;;;;;;;14.27;2.85;;;12.10;99.90;;;;;;5016927;28;20209;-61
2022/04/28 13:08:51;;;;;;;5.25;1.58;;;12.10;99.90;;;;;;5009299;28;20233;-61
2022/04/28 13:11:21;;;;;;;4.57;1.67;;;12.10;99.90;;;;;;5022435;28;21255;-61
2022/04/28 13:13:49;;;;;;;7.75;2.20;;;12.00;99.90;;;;;;5022341;28;20603;-61
2022/04/28 13:16:17;;;;;;;6.45;2.33;;;12.10;99.90;;;;;;5027443;28;20290;-61
2022/04/28 13:18:44;;;;;;;14.27;2.88;;;12.20;99.90;;;;;;5022872;28;20224;-61
2022/04/28 13:21:12;;;;;;;4.90;1.85;;;12.20;99.90;;;;;;5018530;28;20358;-61
2022/04/28 13:23:39;;;;;;;9.63;1.83;;;12.00;99.90;;;;;;5011320;28;20224;-61
2022/04/28 13:26:07;;;;;;;5.90;1.85;;;12.00;99.90;;;;;;5016830;28;20235;-61
2022/04/28 13:28:36;;;;;;;5.80;1.60;;;12.00;99.90;;;;;;5031646;28;20242;-61
2022/04/28 13:31:06;;;;;;;9.10;1.92;;;12.10;99.90;;;;;;5013507;28;20350;-61
2022/04/28 13:33:33;;;;;;;7.30;2.13;;;12.10;99.90;;;;;;5027213;28;20202;-61
2022/04/28 13:36:02;;;;;;;8.65;2.15;;;12.10;99.90;;;;;;5004355;28;20481;-61
2022/04/28 13:38:29;;;;;;;9.60;2.10;;;12.10;99.90;;;;;;5021044;28;20225;-61
2022/04/28 13:40:57;;;;;;;11.70;1.98;;;12.00;99.90;;;;;;5004879;28;20212;-61
2022/04/28 13:43:24;;;;;;;9.68;2.28;;;12.00;99.90;;;;;;5026450;28;20209;-61
2022/04/28 13:45:52;;;;;;;6.65;1.95;;;12.00;99.90;;;;;;5020528;28;20232;-61
2022/04/28 13:48:19;;;;;;;5.30;1.98;;;12.00;99.90;;;;;;5028933;28;20208;-61
2022/04/28 13:50:50;;;;;;;3.95;1.60;;;12.00;99.90;;;;;;5017619;28;20220;-61
2022/04/28 13:53:17;;;;;;;3.28;1.52;;;12.10;99.90;;;;;;5023717;28;20207;-62
2022/04/28 13:55:46;;;;;;;11.18;1.98;;;12.00;99.90;;;;;;5024117;28;23895;-61
2022/04/28 13:58:14;;;;;;;8.88;2.33;;;12.00;99.90;;;;;;5029091;28;20304;-62
2022/04/28 14:00:42;;;;;;;10.23;2.10;;;12.00;99.90;;;;;;5025320;28;20274;-62
2022/04/28 14:03:11;;;;;;;3.35;1.60;;;12.00;99.90;;;;;;5043216;28;21153;-61
2022/04/28 14:05:37;;;;;;;8.32;2.47;;;12.00;99.90;;;;;;5022927;28;20671;-61
2022/04/28 14:08:06;;;;;;;7.78;1.98;;;12.00;99.90;;;;;;4996428;28;20239;-62
2022/04/28 14:10:33;;;;;;;9.23;1.75;;;12.00;99.90;;;;;;5035562;28;20205;-61